Weather observations for the past three days for
Frederick, Frederick Municipal Airport
Imperial (Metric)
Date Time (cdt) Wind (mph) Vis. (mi.) Weather Sky Cond. Temperature (ºF) Relative Humidity Wind Chill (°F) Heat Index (°F) Pressure Precipitation (in)
Air Dwpt 6 hour altimeter (in) sea level (mb) 1 hr 3 hr 6 hr
Max. Min.
07 02:53 N 9 9.00 Fair CLR 48.9 39.9 71% 45 30.08 1017.7
07 01:53 N 8 9.00 Fair CLR 50 41 71% 47 30.09 1018.0
07 00:53 N 7 9.00 Fair CLR 51.1 42.1 68 51.1 71% 30.08 1018.0
06 23:53 N 9 8.00 Fair CLR 52 42.1 69% 30.07 1017.7
06 22:53 NE 8 8.00 Fair CLR 55 43 64% 30.04 1016.6
06 21:53 E 10 8.00 Fair CLR 57.9 42.1 56% 30.01 1015.5
06 20:53 E 10 G 23 8.00 Fair CLR 61 42.1 50% 29.99 1014.7
06 19:53 E 15 7.00 Fair CLR 64.9 42.1 43% 29.96 1013.8
06 18:53 E 10 G 22 7.00 A Few Clouds FEW055 68 43 71.1 62.1 40% 29.95 1013.3
06 17:53 NE 10 G 18 7.00 Fair CLR 69.1 43 39% 29.94 1013.0
06 16:53 N 12 G 22 7.00 Fair CLR 70 43 38% 29.93 1012.7
06 15:53 NE 8 G 18 7.00 A Few Clouds FEW050 69.1 44.1 41% 29.95 1013.2
06 14:53 NE 12 G 22 8.00 Fair CLR 68 44.1 42% 29.96 1013.6
06 13:53 NE 8 G 22 8.00 Fair CLR 64.9 43 45% 29.97 1014.1
06 12:53 NE 15 G 23 8.00 Fair CLR 62.1 42.1 62.1 51.1 48% 29.99 1014.8
06 11:53 E 16 G 24 8.00 A Few Clouds FEW031 59 42.1 54% 30.01 1015.6
06 10:53 E 17 G 29 8.00 A Few Clouds FEW029 55.9 41 57% 30.02 1016.0
06 09:53 NE 16 G 24 7.00 Fair CLR 54 41 62% 30.02 1015.8
06 08:53 NE 15 G 26 7.00 Fair CLR 54 41 62% 29.99 1014.8
06 07:53 NE 15 8.00 Fair CLR 51.1 39 64% 29.97 1014.2
06 06:53 NE 16 G 21 9.00 A Few Clouds FEW034 51.1 37 51.1 51.1 59% 29.95 1013.6
06 05:53 NE 15 G 25 9.00 Overcast OVC028 51.1 37.9 61% 29.93 1012.9
06 04:53 NE 12 9.00 Overcast OVC026 51.1 39 64% 29.93 1012.8
06 03:53 NE 12 9.00 Overcast OVC019 51.1 42.1 71% 29.92 1012.4
06 02:53 NE 10 G 20 9.00 Overcast OVC017 51.1 43 74% 29.9 1011.5
06 01:53 NE 9 8.00 Overcast OVC017 51.1 44.1 77% 29.88 1011.0
06 00:53 NE 13 9.00 Overcast OVC018 51.1 44.1 57 51.1 77% 29.88 1010.8
05 23:53 NE 14 9.00 Overcast OVC017 51.1 44.1 77% 29.88 1010.7
05 22:53 NE 13 G 24 8.00 Overcast OVC019 52 44.1 75% 29.85 1009.8
05 21:53 NE 10 8.00 Overcast OVC023 53.1 44.1 72% 29.84 1009.3
05 20:53 Calm 7.00 Fair CLR 54 44.1 69% 29.82 1008.5
05 19:53 N 17 6.00 Mostly Cloudy with Haze BKN025 55.9 45 67% 29.78 1007.5
05 18:53 N 23 G 31 6.00 Overcast with Haze and Breezy OVC024 57 45 69.1 57 64% 29.77 1007.0
05 17:53 N 18 6.00 Overcast with Haze OVC025 59 46.9 64% 29.77 1007.0
05 16:53 N 18 6.00 A Few Clouds with Haze FEW028 61 48 63% 29.77 1006.9
05 15:53 N 20 G 26 6.00 Fair with Haze CLR 64.9 48 54% 29.75 1006.0
05 14:53 N 17 G 37 2.50 Haze NULL 66.9 48.9 53% 29.75 1005.9
05 13:53 N 20 G 44 7.00 A Few Clouds FEW031 68 48.9 51% 29.73 1005.2
05 12:53 N 23 G 43 7.00 A Few Clouds and Breezy FEW034 69.1 51.1 73.9 64.9 53% 29.73 1005.2
05 11:53 NW 21 G 41 7.00 Fair and Breezy CLR 69.1 53.1 57% 29.69 1004.0
05 10:53 NW 25 G 43 7.00 Fair and Breezy CLR 70 55 59% 29.66 1002.6
05 09:53 N 22 G 39 8.00 Fair and Breezy CLR 73 57.9 59% 29.62 1001.2
05 08:53 W 13 9.00 Fair CLR 73.9 46 37% 29.58 999.6
05 07:53 SW 10 9.00 Fair CLR 68 57.9 70% 29.55 998.8
05 06:53 SW 10 9.00 Fair CLR 64.9 57.9 75.9 64.9 78% 29.53 998.1
05 05:53 SW 10 G 22 10.00 Fair CLR 70 57.9 66% 29.51 997.2
05 04:53 S 12 G 21 10.00 Fair CLR 70 57.9 66% 29.5 996.8
05 03:53 S 12 10.00 Fair CLR 71.1 57.9 63% 29.51 997.2
05 02:53 S 12 10.00 Fair CLR 72 57.9 61% 29.52 997.4
05 01:53 S 16 10.00 Fair CLR 75 59 58% 77 29.53 997.9
05 00:53 S 14 10.00 Fair CLR 75 61 89.1 73.9 62% 77 29.54 998.4
04 23:53 S 13 10.00 Fair CLR 73.9 62.1 67% 29.55 998.6
04 22:53 S 16 10.00 Fair CLR 77 62.1 60% 79 29.56 999.2
04 21:53 S 16 10.00 Fair CLR 79 61 54% 80 29.55 998.9
04 20:53 S 21 G 29 10.00 Fair and Breezy CLR 81 60.1 49% 82 29.53 998.4
04 19:53 S 20 10.00 Fair CLR 84 59 43% 84 29.53 998.4
04 18:53 S 24 G 33 10.00 Fair and Breezy CLR 89.1 50 93.9 84 26% 86 29.54 998.5
04 17:53 S 24 G 31 10.00 Light Rain and Breezy FEW045 91.9 50 24% 89 29.54 998.4
04 16:53 S 21 10.00 Fair and Breezy CLR 93.9 50 22% 91 29.56 998.9
04 15:53 S 20 G 30 9.00 Fair CLR 91.9 51.1 25% 89 29.59 1000.1
04 14:53 S 23 G 35 9.00 Fair and Breezy CLR 91 51.1 26% 88 29.63 1001.3
04 13:53 SW 15 G 28 9.00 Fair CLR 87.1 53.1 31% 85 29.67 1002.8
04 12:53 S 20 G 32 9.00 Fair CLR 84 52 84 57.9 33% 82 29.7 1004.2
04 11:53 SW 21 G 44 9.00 A Few Clouds and Breezy FEW002 80.1 52 38% 80 29.72 1004.9
04 10:53 SW 22 G 32 8.00 Fair and Breezy CLR 75 51.1 43% 78 29.75 1005.9
04 09:53 S 16 G 29 8.00 Fair CLR 71.1 50 47% 29.76 1006.2
04 08:53 S 16 G 24 8.00 Fair CLR 66.9 50 55% 29.77 1006.7
04 07:53 S 8 8.00 Fair CLR 60.1 48.9 67% 29.78 1007.0
Date Time (cdt) Wind (mph) Vis. (mi.) Weather Sky Cond. Air Dwpt Max. Min. Relative Humidity Wind Chill (°F) Heat Index (°F) altimeter (in) sea level (mb) 1 hr 3 hr 6 hr
6 hour
Temperature (ºF) Pressure Precipitation (in)